sensor_id;sensor_type;location;lat;lon;timestamp;temperature;humidity
7658;DHT22;8462;53.156;8.220;2023-06-10T00:01:47;17.60;86.40
7658;DHT22;8462;53.156;8.220;2023-06-10T00:04:15;17.60;87.00
7658;DHT22;8462;53.156;8.220;2023-06-10T00:06:42;17.50;87.60
7658;DHT22;8462;53.156;8.220;2023-06-10T00:09:09;17.50;88.10
7658;DHT22;8462;53.156;8.220;2023-06-10T00:11:36;17.50;88.70
7658;DHT22;8462;53.156;8.220;2023-06-10T00:14:04;17.40;88.90
7658;DHT22;8462;53.156;8.220;2023-06-10T00:16:33;17.40;89.40
7658;DHT22;8462;53.156;8.220;2023-06-10T00:19:00;17.40;89.90
7658;DHT22;8462;53.156;8.220;2023-06-10T00:21:28;17.30;90.10
7658;DHT22;8462;53.156;8.220;2023-06-10T00:23:55;17.30;90.30
7658;DHT22;8462;53.156;8.220;2023-06-10T00:26:22;17.20;90.50
7658;DHT22;8462;53.156;8.220;2023-06-10T00:28:50;17.20;90.60
7658;DHT22;8462;53.156;8.220;2023-06-10T00:31:17;17.10;90.50
7658;DHT22;8462;53.156;8.220;2023-06-10T00:33:46;17.10;90.60
7658;DHT22;8462;53.156;8.220;2023-06-10T00:36:13;17.10;90.70
7658;DHT22;8462;53.156;8.220;2023-06-10T00:38:39;17.10;90.90
7658;DHT22;8462;53.156;8.220;2023-06-10T00:41:08;17.00;91.00
7658;DHT22;8462;53.156;8.220;2023-06-10T00:43:35;16.90;91.20
7658;DHT22;8462;53.156;8.220;2023-06-10T00:46:02;16.90;91.50
7658;DHT22;8462;53.156;8.220;2023-06-10T00:48:29;16.80;91.80
7658;DHT22;8462;53.156;8.220;2023-06-10T00:50:58;16.80;92.10
7658;DHT22;8462;53.156;8.220;2023-06-10T00:53:26;16.70;92.30
7658;DHT22;8462;53.156;8.220;2023-06-10T00:55:53;16.70;92.70
7658;DHT22;8462;53.156;8.220;2023-06-10T00:58:20;16.60;92.90
7658;DHT22;8462;53.156;8.220;2023-06-10T01:00:48;16.60;93.00
7658;DHT22;8462;53.156;8.220;2023-06-10T01:03:17;16.50;93.40
7658;DHT22;8462;53.156;8.220;2023-06-10T01:05:45;16.50;93.70
7658;DHT22;8462;53.156;8.220;2023-06-10T01:08:25;16.50;94.30
7658;DHT22;8462;53.156;8.220;2023-06-10T01:10:59;16.40;94.60
7658;DHT22;8462;53.156;8.220;2023-06-10T01:13:28;16.30;94.90
7658;DHT22;8462;53.156;8.220;2023-06-10T01:15:57;16.30;95.20
7658;DHT22;8462;53.156;8.220;2023-06-10T01:18:30;16.20;95.30
7658;DHT22;8462;53.156;8.220;2023-06-10T01:20:57;16.20;95.50
7658;DHT22;8462;53.156;8.220;2023-06-10T01:23:27;16.20;95.50
7658;DHT22;8462;53.156;8.220;2023-06-10T01:26:00;16.10;95.80
7658;DHT22;8462;53.156;8.220;2023-06-10T01:28:33;16.10;96.10
7658;DHT22;8462;53.156;8.220;2023-06-10T01:31:08;16.10;96.30
7658;DHT22;8462;53.156;8.220;2023-06-10T01:33:42;16.00;97.10
7658;DHT22;8462;53.156;8.220;2023-06-10T01:36:11;15.90;97.10
7658;DHT22;8462;53.156;8.220;2023-06-10T01:38:43;15.80;97.40
7658;DHT22;8462;53.156;8.220;2023-06-10T01:41:13;15.80;97.50
7658;DHT22;8462;53.156;8.220;2023-06-10T01:43:40;15.80;97.60
7658;DHT22;8462;53.156;8.220;2023-06-10T01:46:09;15.80;97.80
7658;DHT22;8462;53.156;8.220;2023-06-10T01:48:37;15.80;98.00
7658;DHT22;8462;53.156;8.220;2023-06-10T01:51:04;15.80;98.10
7658;DHT22;8462;53.156;8.220;2023-06-10T01:53:31;15.70;98.60
7658;DHT22;8462;53.156;8.220;2023-06-10T01:56:01;15.70;99.30
7658;DHT22;8462;53.156;8.220;2023-06-10T01:58:28;15.60;99.00
7658;DHT22;8462;53.156;8.220;2023-06-10T02:00:56;15.60;99.20
7658;DHT22;8462;53.156;8.220;2023-06-10T02:03:23;15.60;99.50
7658;DHT22;8462;53.156;8.220;2023-06-10T02:05:50;15.60;99.70
7658;DHT22;8462;53.156;8.220;2023-06-10T02:08:17;15.60;99.80
7658;DHT22;8462;53.156;8.220;2023-06-10T02:10:43;15.50;99.90
7658;DHT22;8462;53.156;8.220;2023-06-10T02:13:12;15.50;99.90
7658;DHT22;8462;53.156;8.220;2023-06-10T02:15:39;15.50;99.90
7658;DHT22;8462;53.156;8.220;2023-06-10T02:18:06;15.40;99.90
7658;DHT22;8462;53.156;8.220;2023-06-10T02:20:34;15.40;99.90
7658;DHT22;8462;53.156;8.220;2023-06-10T02:23:02;15.40;99.90
7658;DHT22;8462;53.156;8.220;2023-06-10T02:25:29;15.40;99.90
7658;DHT22;8462;53.156;8.220;2023-06-10T02:27:56;15.40;99.90
7658;DHT22;8462;53.156;8.220;2023-06-10T02:30:26;15.40;99.90
7658;DHT22;8462;53.156;8.220;2023-06-10T02:32:53;15.30;99.90
7658;DHT22;8462;53.156;8.220;2023-06-10T02:35:24;15.30;99.90
7658;DHT22;8462;53.156;8.220;2023-06-10T02:37:52;15.30;99.90
7658;DHT22;8462;53.156;8.220;2023-06-10T02:40:20;15.20;99.90
7658;DHT22;8462;53.156;8.220;2023-06-10T02:42:47;15.20;99.90
7658;DHT22;8462;53.156;8.220;2023-06-10T02:45:14;15.20;99.90
7658;DHT22;8462;53.156;8.220;2023-06-10T02:47:44;15.20;99.90
7658;DHT22;8462;53.156;8.220;2023-06-10T02:50:12;15.10;99.90
7658;DHT22;8462;53.156;8.220;2023-06-10T02:53:05;15.10;99.90
7658;DHT22;8462;53.156;8.220;2023-06-10T02:55:36;15.00;99.90
7658;DHT22;8462;53.156;8.220;2023-06-10T02:58:08;15.00;99.90
7658;DHT22;8462;53.156;8.220;2023-06-10T03:00:35;15.00;99.90
7658;DHT22;8462;53.156;8.220;2023-06-10T03:03:04;15.00;99.90
7658;DHT22;8462;53.156;8.220;2023-06-10T03:05:39;15.00;99.90
7658;DHT22;8462;53.156;8.220;2023-06-10T03:08:06;14.90;99.90
7658;DHT22;8462;53.156;8.220;2023-06-10T03:10:37;14.90;99.90
7658;DHT22;8462;53.156;8.220;2023-06-10T03:13:04;14.90;99.90
7658;DHT22;8462;53.156;8.220;2023-06-10T03:15:31;14.90;99.90
7658;DHT22;8462;53.156;8.220;2023-06-10T03:18:00;14.90;99.90
7658;DHT22;8462;53.156;8.220;2023-06-10T03:20:30;14.90;99.90
7658;DHT22;8462;53.156;8.220;2023-06-10T03:22:57;14.80;99.90
7658;DHT22;8462;53.156;8.220;2023-06-10T03:25:24;14.80;99.90
7658;DHT22;8462;53.156;8.220;2023-06-10T03:27:53;14.80;99.90
7658;DHT22;8462;53.156;8.220;2023-06-10T03:30:20;14.80;99.90
7658;DHT22;8462;53.156;8.220;2023-06-10T03:32:47;14.80;99.90
7658;DHT22;8462;53.156;8.220;2023-06-10T03:35:17;14.80;99.90
7658;DHT22;8462;53.156;8.220;2023-06-10T03:37:45;14.90;99.90
7658;DHT22;8462;53.156;8.220;2023-06-10T03:40:14;14.90;99.90
7658;DHT22;8462;53.156;8.220;2023-06-10T03:42:44;14.90;99.90
7658;DHT22;8462;53.156;8.220;2023-06-10T03:45:14;15.00;99.90
7658;DHT22;8462;53.156;8.220;2023-06-10T03:47:40;15.00;99.90
7658;DHT22;8462;53.156;8.220;2023-06-10T03:50:12;15.00;99.90
7658;DHT22;8462;53.156;8.220;2023-06-10T03:52:42;15.10;99.90
7658;DHT22;8462;53.156;8.220;2023-06-10T03:55:12;15.20;99.90
7658;DHT22;8462;53.156;8.220;2023-06-10T03:57:43;15.20;99.90
7658;DHT22;8462;53.156;8.220;2023-06-10T04:00:12;15.20;99.90
7658;DHT22;8462;53.156;8.220;2023-06-10T04:02:41;15.20;99.90
7658;DHT22;8462;53.156;8.220;2023-06-10T04:05:12;15.30;99.90
7658;DHT22;8462;53.156;8.220;2023-06-10T04:07:39;15.30;99.90
7658;DHT22;8462;53.156;8.220;2023-06-10T04:10:09;15.30;99.90
7658;DHT22;8462;53.156;8.220;2023-06-10T04:12:37;15.30;99.90
7658;DHT22;8462;53.156;8.220;2023-06-10T04:15:06;15.30;99.90
7658;DHT22;8462;53.156;8.220;2023-06-10T04:17:33;15.30;99.90
7658;DHT22;8462;53.156;8.220;2023-06-10T04:20:01;15.30;99.90
7658;DHT22;8462;53.156;8.220;2023-06-10T04:22:29;15.30;99.90
7658;DHT22;8462;53.156;8.220;2023-06-10T04:24:57;15.40;99.90
7658;DHT22;8462;53.156;8.220;2023-06-10T04:27:24;15.50;99.90
7658;DHT22;8462;53.156;8.220;2023-06-10T04:29:53;15.60;99.90
7658;DHT22;8462;53.156;8.220;2023-06-10T04:32:20;15.80;99.90
7658;DHT22;8462;53.156;8.220;2023-06-10T04:34:49;15.80;99.90
7658;DHT22;8462;53.156;8.220;2023-06-10T04:37:18;16.00;99.90
7658;DHT22;8462;53.156;8.220;2023-06-10T04:39:46;16.10;99.90
7658;DHT22;8462;53.156;8.220;2023-06-10T04:42:13;16.20;99.40
7658;DHT22;8462;53.156;8.220;2023-06-10T04:44:41;16.30;99.00
7658;DHT22;8462;53.156;8.220;2023-06-10T04:47:10;16.20;99.30
7658;DHT22;8462;53.156;8.220;2023-06-10T04:49:38;16.30;99.10
7658;DHT22;8462;53.156;8.220;2023-06-10T04:52:05;16.40;98.50
7658;DHT22;8462;53.156;8.220;2023-06-10T04:54:36;16.50;99.00
7658;DHT22;8462;53.156;8.220;2023-06-10T04:57:04;16.70;98.50
7658;DHT22;8462;53.156;8.220;2023-06-10T04:59:33;16.90;97.70
7658;DHT22;8462;53.156;8.220;2023-06-10T05:02:03;17.20;96.50
7658;DHT22;8462;53.156;8.220;2023-06-10T05:04:32;17.40;97.00
7658;DHT22;8462;53.156;8.220;2023-06-10T05:06:59;18.20;95.40
7658;DHT22;8462;53.156;8.220;2023-06-10T05:09:26;19.20;92.40
7658;DHT22;8462;53.156;8.220;2023-06-10T05:11:53;20.10;91.00
7658;DHT22;8462;53.156;8.220;2023-06-10T05:14:20;20.80;90.00
7658;DHT22;8462;53.156;8.220;2023-06-10T05:16:47;21.70;86.80
7658;DHT22;8462;53.156;8.220;2023-06-10T05:19:15;22.20;82.40
7658;DHT22;8462;53.156;8.220;2023-06-10T05:21:44;22.30;82.10
7658;DHT22;8462;53.156;8.220;2023-06-10T05:24:11;22.10;82.00
7658;DHT22;8462;53.156;8.220;2023-06-10T05:26:38;21.90;83.30
7658;DHT22;8462;53.156;8.220;2023-06-10T05:29:08;21.70;83.40
7658;DHT22;8462;53.156;8.220;2023-06-10T05:31:36;21.70;84.60
7658;DHT22;8462;53.156;8.220;2023-06-10T05:34:02;21.80;83.80
7658;DHT22;8462;53.156;8.220;2023-06-10T05:36:29;21.70;82.40
7658;DHT22;8462;53.156;8.220;2023-06-10T05:38:58;21.30;83.20
7658;DHT22;8462;53.156;8.220;2023-06-10T05:41:24;21.00;85.20
7658;DHT22;8462;53.156;8.220;2023-06-10T05:43:51;20.70;85.40
7658;DHT22;8462;53.156;8.220;2023-06-10T05:46:19;20.50;86.90
7658;DHT22;8462;53.156;8.220;2023-06-10T05:48:46;20.40;87.00
7658;DHT22;8462;53.156;8.220;2023-06-10T05:51:13;20.30;87.50
7658;DHT22;8462;53.156;8.220;2023-06-10T05:53:40;20.40;87.90
7658;DHT22;8462;53.156;8.220;2023-06-10T05:56:08;20.30;86.80
7658;DHT22;8462;53.156;8.220;2023-06-10T05:58:35;20.10;87.30
7658;DHT22;8462;53.156;8.220;2023-06-10T06:01:02;19.80;88.50
7658;DHT22;8462;53.156;8.220;2023-06-10T06:03:29;19.50;89.70
7658;DHT22;8462;53.156;8.220;2023-06-10T06:05:56;19.30;90.30
7658;DHT22;8462;53.156;8.220;2023-06-10T06:08:23;19.20;90.60
7658;DHT22;8462;53.156;8.220;2023-06-10T06:10:50;19.20;90.60
7658;DHT22;8462;53.156;8.220;2023-06-10T06:13:18;19.30;90.50
7658;DHT22;8462;53.156;8.220;2023-06-10T06:15:45;19.40;90.60
7658;DHT22;8462;53.156;8.220;2023-06-10T06:18:13;19.80;90.80
7658;DHT22;8462;53.156;8.220;2023-06-10T06:20:40;20.10;87.90
7658;DHT22;8462;53.156;8.220;2023-06-10T06:23:09;20.10;88.20
7658;DHT22;8462;53.156;8.220;2023-06-10T06:25:37;20.40;90.00
7658;DHT22;8462;53.156;8.220;2023-06-10T06:28:05;21.40;87.20
7658;DHT22;8462;53.156;8.220;2023-06-10T06:30:33;22.30;82.80
7658;DHT22;8462;53.156;8.220;2023-06-10T06:33:00;22.90;81.00
7658;DHT22;8462;53.156;8.220;2023-06-10T06:35:27;23.60;78.40
7658;DHT22;8462;53.156;8.220;2023-06-10T06:37:56;23.90;76.20
7658;DHT22;8462;53.156;8.220;2023-06-10T06:40:27;24.30;74.20
7658;DHT22;8462;53.156;8.220;2023-06-10T06:42:55;24.20;74.00
7658;DHT22;8462;53.156;8.220;2023-06-10T06:45:41;23.80;75.20
7658;DHT22;8462;53.156;8.220;2023-06-10T06:48:08;24.00;75.40
7658;DHT22;8462;53.156;8.220;2023-06-10T06:50:35;24.10;74.40
7658;DHT22;8462;53.156;8.220;2023-06-10T06:53:02;24.50;73.90
7658;DHT22;8462;53.156;8.220;2023-06-10T06:55:29;24.80;71.80
7658;DHT22;8462;53.156;8.220;2023-06-10T06:57:56;24.90;72.80
7658;DHT22;8462;53.156;8.220;2023-06-10T07:00:27;24.90;71.00
7658;DHT22;8462;53.156;8.220;2023-06-10T07:02:55;24.80;71.60
7658;DHT22;8462;53.156;8.220;2023-06-10T07:05:22;24.50;72.00
7658;DHT22;8462;53.156;8.220;2023-06-10T07:07:50;24.40;72.80
7658;DHT22;8462;53.156;8.220;2023-06-10T07:10:20;24.20;72.30
7658;DHT22;8462;53.156;8.220;2023-06-10T07:12:47;24.30;73.80
7658;DHT22;8462;53.156;8.220;2023-06-10T07:15:14;24.20;71.70
7658;DHT22;8462;53.156;8.220;2023-06-10T07:17:41;24.10;72.80
7658;DHT22;8462;53.156;8.220;2023-06-10T07:20:11;24.60;72.40
7658;DHT22;8462;53.156;8.220;2023-06-10T07:22:40;24.80;71.30
7658;DHT22;8462;53.156;8.220;2023-06-10T07:25:07;24.80;70.60
7658;DHT22;8462;53.156;8.220;2023-06-10T07:27:35;24.90;70.00
7658;DHT22;8462;53.156;8.220;2023-06-10T07:30:03;24.80;69.60
7658;DHT22;8462;53.156;8.220;2023-06-10T07:32:31;25.00;70.50
7658;DHT22;8462;53.156;8.220;2023-06-10T07:34:59;25.50;69.00
7658;DHT22;8462;53.156;8.220;2023-06-10T07:37:27;25.90;67.70
7658;DHT22;8462;53.156;8.220;2023-06-10T07:39:55;25.80;67.30
7658;DHT22;8462;53.156;8.220;2023-06-10T07:42:22;25.60;67.30
7658;DHT22;8462;53.156;8.220;2023-06-10T07:44:49;25.60;68.60
7658;DHT22;8462;53.156;8.220;2023-06-10T07:47:16;25.70;67.60
7658;DHT22;8462;53.156;8.220;2023-06-10T07:49:43;25.80;67.50
7658;DHT22;8462;53.156;8.220;2023-06-10T07:52:11;25.40;66.40
7658;DHT22;8462;53.156;8.220;2023-06-10T07:54:39;24.70;68.90
7658;DHT22;8462;53.156;8.220;2023-06-10T07:57:06;23.90;71.30
7658;DHT22;8462;53.156;8.220;2023-06-10T07:59:33;23.20;73.10
7658;DHT22;8462;53.156;8.220;2023-06-10T08:02:00;22.60;76.70
7658;DHT22;8462;53.156;8.220;2023-06-10T08:04:27;22.10;79.00
7658;DHT22;8462;53.156;8.220;2023-06-10T08:06:56;21.60;80.80
7658;DHT22;8462;53.156;8.220;2023-06-10T08:09:23;21.40;81.90
7658;DHT22;8462;53.156;8.220;2023-06-10T08:11:51;21.40;82.90
7658;DHT22;8462;53.156;8.220;2023-06-10T08:14:18;21.40;83.30
7658;DHT22;8462;53.156;8.220;2023-06-10T08:16:47;21.40;83.10
7658;DHT22;8462;53.156;8.220;2023-06-10T08:19:14;21.30;82.90
7658;DHT22;8462;53.156;8.220;2023-06-10T08:21:41;21.20;83.90
7658;DHT22;8462;53.156;8.220;2023-06-10T08:24:08;21.10;83.90
7658;DHT22;8462;53.156;8.220;2023-06-10T08:26:35;21.00;84.60
7658;DHT22;8462;53.156;8.220;2023-06-10T08:29:04;21.10;85.00
7658;DHT22;8462;53.156;8.220;2023-06-10T08:31:31;21.30;83.80
7658;DHT22;8462;53.156;8.220;2023-06-10T08:33:59;21.30;84.30
7658;DHT22;8462;53.156;8.220;2023-06-10T08:36:26;21.40;84.10
7658;DHT22;8462;53.156;8.220;2023-06-10T08:38:53;21.50;83.60
7658;DHT22;8462;53.156;8.220;2023-06-10T08:41:21;21.50;83.80
7658;DHT22;8462;53.156;8.220;2023-06-10T08:43:59;21.40;84.80
7658;DHT22;8462;53.156;8.220;2023-06-10T08:46:31;21.40;84.70
7658;DHT22;8462;53.156;8.220;2023-06-10T08:49:06;21.50;83.40
7658;DHT22;8462;53.156;8.220;2023-06-10T08:51:34;21.60;84.00
7658;DHT22;8462;53.156;8.220;2023-06-10T08:54:05;21.70;83.20
7658;DHT22;8462;53.156;8.220;2023-06-10T08:56:39;21.80;82.90
7658;DHT22;8462;53.156;8.220;2023-06-10T08:59:07;22.10;82.30
7658;DHT22;8462;53.156;8.220;2023-06-10T09:01:36;22.20;82.50
7658;DHT22;8462;53.156;8.220;2023-06-10T09:04:03;22.40;82.20
7658;DHT22;8462;53.156;8.220;2023-06-10T09:06:32;22.50;81.90
7658;DHT22;8462;53.156;8.220;2023-06-10T09:08:59;22.50;82.00
7658;DHT22;8462;53.156;8.220;2023-06-10T09:11:26;22.70;81.00
7658;DHT22;8462;53.156;8.220;2023-06-10T09:13:53;22.80;80.20
7658;DHT22;8462;53.156;8.220;2023-06-10T09:16:20;22.90;79.80
7658;DHT22;8462;53.156;8.220;2023-06-10T09:18:51;22.90;80.20
7658;DHT22;8462;53.156;8.220;2023-06-10T09:21:22;23.00;79.70
7658;DHT22;8462;53.156;8.220;2023-06-10T09:23:49;23.20;80.10
7658;DHT22;8462;53.156;8.220;2023-06-10T09:26:16;23.40;79.00
7658;DHT22;8462;53.156;8.220;2023-06-10T09:28:45;23.60;78.80
7658;DHT22;8462;53.156;8.220;2023-06-10T09:31:14;23.70;77.80
7658;DHT22;8462;53.156;8.220;2023-06-10T09:33:44;23.60;77.20
7658;DHT22;8462;53.156;8.220;2023-06-10T09:36:21;23.50;77.90
7658;DHT22;8462;53.156;8.220;2023-06-10T09:38:50;23.50;78.40
7658;DHT22;8462;53.156;8.220;2023-06-10T09:41:17;23.60;77.20
7658;DHT22;8462;53.156;8.220;2023-06-10T09:43:45;23.60;77.20
7658;DHT22;8462;53.156;8.220;2023-06-10T09:46:15;23.70;77.10
7658;DHT22;8462;53.156;8.220;2023-06-10T09:48:45;23.80;78.40
7658;DHT22;8462;53.156;8.220;2023-06-10T09:51:14;24.10;77.70
7658;DHT22;8462;53.156;8.220;2023-06-10T09:53:42;24.20;76.00
7658;DHT22;8462;53.156;8.220;2023-06-10T09:56:09;24.10;75.50
7658;DHT22;8462;53.156;8.220;2023-06-10T09:58:37;24.10;76.30
7658;DHT22;8462;53.156;8.220;2023-06-10T10:01:05;24.20;76.70
7658;DHT22;8462;53.156;8.220;2023-06-10T10:03:32;24.60;75.80
7658;DHT22;8462;53.156;8.220;2023-06-10T10:06:00;24.80;74.50
7658;DHT22;8462;53.156;8.220;2023-06-10T10:08:29;24.90;74.40
7658;DHT22;8462;53.156;8.220;2023-06-10T10:10:59;25.00;73.10
7658;DHT22;8462;53.156;8.220;2023-06-10T10:13:28;25.00;73.70
7658;DHT22;8462;53.156;8.220;2023-06-10T10:15:57;25.20;73.10
7658;DHT22;8462;53.156;8.220;2023-06-10T10:18:27;25.30;72.30
7658;DHT22;8462;53.156;8.220;2023-06-10T10:20:57;25.40;72.60
7658;DHT22;8462;53.156;8.220;2023-06-10T10:23:31;25.50;72.50
7658;DHT22;8462;53.156;8.220;2023-06-10T10:26:00;25.60;71.50
7658;DHT22;8462;53.156;8.220;2023-06-10T10:28:43;25.60;70.50
7658;DHT22;8462;53.156;8.220;2023-06-10T10:31:16;25.60;71.20
7658;DHT22;8462;53.156;8.220;2023-06-10T10:33:51;25.80;70.60
7658;DHT22;8462;53.156;8.220;2023-06-10T10:36:20;26.00;69.80
7658;DHT22;8462;53.156;8.220;2023-06-10T10:38:49;26.10;69.40
7658;DHT22;8462;53.156;8.220;2023-06-10T10:41:16;26.10;67.40
7658;DHT22;8462;53.156;8.220;2023-06-10T10:43:45;26.00;68.20
7658;DHT22;8462;53.156;8.220;2023-06-10T10:46:14;26.10;66.70
7658;DHT22;8462;53.156;8.220;2023-06-10T10:48:41;26.00;68.10
7658;DHT22;8462;53.156;8.220;2023-06-10T10:51:10;26.20;69.60
7658;DHT22;8462;53.156;8.220;2023-06-10T10:53:37;26.40;68.20
7658;DHT22;8462;53.156;8.220;2023-06-10T10:56:12;26.40;66.70
7658;DHT22;8462;53.156;8.220;2023-06-10T10:58:40;26.50;66.70
7658;DHT22;8462;53.156;8.220;2023-06-10T11:01:11;26.60;66.30
7658;DHT22;8462;53.156;8.220;2023-06-10T11:03:42;26.40;67.20
7658;DHT22;8462;53.156;8.220;2023-06-10T11:06:13;26.30;67.20
7658;DHT22;8462;53.156;8.220;2023-06-10T11:08:47;26.40;67.70
7658;DHT22;8462;53.156;8.220;2023-06-10T11:11:21;26.50;67.00
7658;DHT22;8462;53.156;8.220;2023-06-10T11:13:58;26.60;64.70
7658;DHT22;8462;53.156;8.220;2023-06-10T11:16:28;26.80;63.80
7658;DHT22;8462;53.156;8.220;2023-06-10T11:18:56;26.90;64.10
7658;DHT22;8462;53.156;8.220;2023-06-10T11:21:24;26.90;63.50
7658;DHT22;8462;53.156;8.220;2023-06-10T11:23:51;26.80;64.00
7658;DHT22;8462;53.156;8.220;2023-06-10T11:26:31;26.70;64.20
7658;DHT22;8462;53.156;8.220;2023-06-10T11:29:04;26.90;64.60
7658;DHT22;8462;53.156;8.220;2023-06-10T11:31:32;26.90;64.00
7658;DHT22;8462;53.156;8.220;2023-06-10T11:34:01;27.00;63.90
7658;DHT22;8462;53.156;8.220;2023-06-10T11:36:29;27.20;63.70
7658;DHT22;8462;53.156;8.220;2023-06-10T11:38:57;27.30;63.50
7658;DHT22;8462;53.156;8.220;2023-06-10T11:41:25;27.40;62.90
7658;DHT22;8462;53.156;8.220;2023-06-10T11:43:54;27.30;63.60
7658;DHT22;8462;53.156;8.220;2023-06-10T11:46:22;27.40;62.80
7658;DHT22;8462;53.156;8.220;2023-06-10T11:48:49;27.30;63.50
7658;DHT22;8462;53.156;8.220;2023-06-10T11:51:17;27.30;63.70
7658;DHT22;8462;53.156;8.220;2023-06-10T11:53:44;27.40;60.80
7658;DHT22;8462;53.156;8.220;2023-06-10T11:56:11;27.40;61.40
7658;DHT22;8462;53.156;8.220;2023-06-10T11:58:42;27.40;61.50
7658;DHT22;8462;53.156;8.220;2023-06-10T12:01:19;27.40;59.00
7658;DHT22;8462;53.156;8.220;2023-06-10T12:03:56;27.50;59.20
7658;DHT22;8462;53.156;8.220;2023-06-10T12:06:23;27.60;58.60
7658;DHT22;8462;53.156;8.220;2023-06-10T12:08:53;27.60;57.90
7658;DHT22;8462;53.156;8.220;2023-06-10T12:11:20;27.70;55.50
7658;DHT22;8462;53.156;8.220;2023-06-10T12:13:48;27.80;54.40
7658;DHT22;8462;53.156;8.220;2023-06-10T12:16:18;27.80;53.60
7658;DHT22;8462;53.156;8.220;2023-06-10T12:18:46;27.80;52.80
7658;DHT22;8462;53.156;8.220;2023-06-10T12:21:23;27.80;53.70
7658;DHT22;8462;53.156;8.220;2023-06-10T12:24:01;27.90;52.80
7658;DHT22;8462;53.156;8.220;2023-06-10T12:26:40;28.00;52.70
7658;DHT22;8462;53.156;8.220;2023-06-10T12:29:28;28.00;52.50
7658;DHT22;8462;53.156;8.220;2023-06-10T12:31:58;27.90;48.50
7658;DHT22;8462;53.156;8.220;2023-06-10T12:34:36;27.90;49.00
7658;DHT22;8462;53.156;8.220;2023-06-10T12:37:05;27.90;50.60
7658;DHT22;8462;53.156;8.220;2023-06-10T12:39:32;28.10;50.70
7658;DHT22;8462;53.156;8.220;2023-06-10T12:42:00;28.20;46.50
7658;DHT22;8462;53.156;8.220;2023-06-10T12:44:35;28.20;46.70
7658;DHT22;8462;53.156;8.220;2023-06-10T12:47:09;28.10;47.90
7658;DHT22;8462;53.156;8.220;2023-06-10T12:49:38;28.10;48.10
7658;DHT22;8462;53.156;8.220;2023-06-10T12:52:05;28.10;46.90
7658;DHT22;8462;53.156;8.220;2023-06-10T12:54:33;28.00;47.70
7658;DHT22;8462;53.156;8.220;2023-06-10T12:57:01;28.00;47.40
7658;DHT22;8462;53.156;8.220;2023-06-10T12:59:27;28.00;48.30
7658;DHT22;8462;53.156;8.220;2023-06-10T13:01:55;28.10;47.30
7658;DHT22;8462;53.156;8.220;2023-06-10T13:04:23;28.10;46.30
7658;DHT22;8462;53.156;8.220;2023-06-10T13:06:50;28.10;47.30
7658;DHT22;8462;53.156;8.220;2023-06-10T13:09:17;28.30;47.80
7658;DHT22;8462;53.156;8.220;2023-06-10T13:11:44;28.40;48.70
7658;DHT22;8462;53.156;8.220;2023-06-10T13:14:11;28.60;44.90
7658;DHT22;8462;53.156;8.220;2023-06-10T13:16:38;28.70;43.90
7658;DHT22;8462;53.156;8.220;2023-06-10T13:19:05;28.60;43.90
7658;DHT22;8462;53.156;8.220;2023-06-10T13:21:34;28.70;44.40
7658;DHT22;8462;53.156;8.220;2023-06-10T13:24:02;28.70;44.00
7658;DHT22;8462;53.156;8.220;2023-06-10T13:26:31;28.80;43.50
7658;DHT22;8462;53.156;8.220;2023-06-10T13:28:58;28.80;42.90
7658;DHT22;8462;53.156;8.220;2023-06-10T13:31:25;29.00;41.70
7658;DHT22;8462;53.156;8.220;2023-06-10T13:33:52;28.90;41.40
7658;DHT22;8462;53.156;8.220;2023-06-10T13:36:19;28.90;41.20
7658;DHT22;8462;53.156;8.220;2023-06-10T13:38:47;28.80;42.00
7658;DHT22;8462;53.156;8.220;2023-06-10T13:41:15;28.90;43.30
7658;DHT22;8462;53.156;8.220;2023-06-10T13:43:42;28.90;42.60
7658;DHT22;8462;53.156;8.220;2023-06-10T13:46:09;29.00;42.70
7658;DHT22;8462;53.156;8.220;2023-06-10T13:48:37;29.10;42.80
7658;DHT22;8462;53.156;8.220;2023-06-10T13:51:04;29.10;42.70
7658;DHT22;8462;53.156;8.220;2023-06-10T13:53:32;29.00;41.20
7658;DHT22;8462;53.156;8.220;2023-06-10T13:56:01;29.00;40.70
7658;DHT22;8462;53.156;8.220;2023-06-10T13:58:28;28.90;40.20
7658;DHT22;8462;53.156;8.220;2023-06-10T14:00:55;28.80;40.40
7658;DHT22;8462;53.156;8.220;2023-06-10T14:03:23;28.70;41.00
7658;DHT22;8462;53.156;8.220;2023-06-10T14:05:50;28.70;41.70
7658;DHT22;8462;53.156;8.220;2023-06-10T14:08:17;28.60;42.70
7658;DHT22;8462;53.156;8.220;2023-06-10T14:10:44;28.70;42.80
7658;DHT22;8462;53.156;8.220;2023-06-10T14:13:12;28.80;43.10
7658;DHT22;8462;53.156;8.220;2023-06-10T14:15:39;28.90;41.70
7658;DHT22;8462;53.156;8.220;2023-06-10T14:18:06;28.90;41.30
7658;DHT22;8462;53.156;8.220;2023-06-10T14:20:33;29.00;41.70
7658;DHT22;8462;53.156;8.220;2023-06-10T14:23:00;29.00;41.50
7658;DHT22;8462;53.156;8.220;2023-06-10T14:25:27;29.00;41.10
7658;DHT22;8462;53.156;8.220;2023-06-10T14:27:55;29.00;41.40
7658;DHT22;8462;53.156;8.220;2023-06-10T14:30:24;28.90;41.70
7658;DHT22;8462;53.156;8.220;2023-06-10T14:32:51;28.90;41.00
7658;DHT22;8462;53.156;8.220;2023-06-10T14:35:18;28.90;40.90
7658;DHT22;8462;53.156;8.220;2023-06-10T14:37:46;28.90;41.30
7658;DHT22;8462;53.156;8.220;2023-06-10T14:40:13;28.90;41.00
7658;DHT22;8462;53.156;8.220;2023-06-10T14:42:40;28.90;40.90
7658;DHT22;8462;53.156;8.220;2023-06-10T14:45:08;28.90;41.40
7658;DHT22;8462;53.156;8.220;2023-06-10T14:47:37;28.90;41.30
7658;DHT22;8462;53.156;8.220;2023-06-10T14:50:04;28.90;41.10
7658;DHT22;8462;53.156;8.220;2023-06-10T14:52:31;28.90;40.90
7658;DHT22;8462;53.156;8.220;2023-06-10T14:54:58;28.90;41.30
7658;DHT22;8462;53.156;8.220;2023-06-10T14:57:26;28.90;41.20
7658;DHT22;8462;53.156;8.220;2023-06-10T14:59:53;28.80;41.40
7658;DHT22;8462;53.156;8.220;2023-06-10T15:02:21;28.90;41.70
7658;DHT22;8462;53.156;8.220;2023-06-10T15:04:50;28.90;42.20
7658;DHT22;8462;53.156;8.220;2023-06-10T15:07:17;29.00;42.30
7658;DHT22;8462;53.156;8.220;2023-06-10T15:09:44;29.00;42.50
7658;DHT22;8462;53.156;8.220;2023-06-10T15:12:11;29.10;42.60
7658;DHT22;8462;53.156;8.220;2023-06-10T15:14:38;29.10;42.50
7658;DHT22;8462;53.156;8.220;2023-06-10T15:17:05;29.20;42.60
7658;DHT22;8462;53.156;8.220;2023-06-10T15:19:32;29.20;42.80
7658;DHT22;8462;53.156;8.220;2023-06-10T15:22:00;29.10;44.20
7658;DHT22;8462;53.156;8.220;2023-06-10T15:24:27;29.20;43.00
7658;DHT22;8462;53.156;8.220;2023-06-10T15:26:54;29.10;43.20
7658;DHT22;8462;53.156;8.220;2023-06-10T15:29:21;29.10;43.20
7658;DHT22;8462;53.156;8.220;2023-06-10T15:31:48;29.10;43.20
7658;DHT22;8462;53.156;8.220;2023-06-10T15:34:15;29.10;43.70
7658;DHT22;8462;53.156;8.220;2023-06-10T15:36:42;29.10;43.80
7658;DHT22;8462;53.156;8.220;2023-06-10T15:39:11;29.10;43.50
7658;DHT22;8462;53.156;8.220;2023-06-10T15:41:38;29.20;43.90
7658;DHT22;8462;53.156;8.220;2023-06-10T15:44:05;29.20;43.80
7658;DHT22;8462;53.156;8.220;2023-06-10T15:46:32;29.20;44.00
7658;DHT22;8462;53.156;8.220;2023-06-10T15:49:00;29.20;43.70
7658;DHT22;8462;53.156;8.220;2023-06-10T15:51:26;29.10;44.10
7658;DHT22;8462;53.156;8.220;2023-06-10T15:53:54;29.20;44.00
7658;DHT22;8462;53.156;8.220;2023-06-10T15:56:23;29.20;44.50
7658;DHT22;8462;53.156;8.220;2023-06-10T15:58:51;29.20;44.70
7658;DHT22;8462;53.156;8.220;2023-06-10T16:01:18;29.10;44.50
7658;DHT22;8462;53.156;8.220;2023-06-10T16:03:45;29.10;45.30
7658;DHT22;8462;53.156;8.220;2023-06-10T16:06:12;29.10;45.80
7658;DHT22;8462;53.156;8.220;2023-06-10T16:08:41;29.10;45.60
7658;DHT22;8462;53.156;8.220;2023-06-10T16:11:08;29.10;46.00